sensor_id;sensor_type;location;lat;lon;timestamp;pressure;altitude;pressure_sealevel;temperature;humidity
44309;BME280;30022;55.846;37.340;2023-03-26T00:01:55;79958.81;;;-143.51;100.00
44309;BME280;30022;55.846;37.340;2023-03-26T00:04:22;79449.03;;;-143.51;100.00
44309;BME280;30022;55.846;37.340;2023-03-26T00:06:49;79703.94;;;-143.51;100.00
44309;BME280;30022;55.846;37.340;2023-03-26T00:09:15;79958.81;;;-143.51;100.00
44309;BME280;30022;55.846;37.340;2023-03-26T00:11:41;80213.75;;;-143.51;100.00
44309;BME280;30022;55.846;37.340;2023-03-26T00:14:08;80213.75;;;-143.51;100.00
44309;BME280;30022;55.846;37.340;2023-03-26T00:16:33;80213.75;;;-143.51;100.00
44309;BME280;30022;55.846;37.340;2023-03-26T00:18:59;80468.66;;;-143.51;100.00
44309;BME280;30022;55.846;37.340;2023-03-26T00:21:26;79958.81;;;-143.51;100.00
44309;BME280;30022;55.846;37.340;2023-03-26T00:23:57;79703.94;;;-143.51;100.00
44309;BME280;30022;55.846;37.340;2023-03-26T00:26:24;79449.03;;;-143.51;100.00
44309;BME280;30022;55.846;37.340;2023-03-26T00:28:50;80468.66;;;-143.51;100.00
44309;BME280;30022;55.846;37.340;2023-03-26T00:31:16;80978.56;;;-143.51;100.00
44309;BME280;30022;55.846;37.340;2023-03-26T00:33:42;81233.56;;;-143.51;100.00
44309;BME280;30022;55.846;37.340;2023-03-26T00:36:12;80468.66;;;-143.51;100.00
44309;BME280;30022;55.846;37.340;2023-03-26T00:38:42;79703.94;;;-143.51;100.00
44309;BME280;30022;55.846;37.340;2023-03-26T00:41:09;80213.75;;;-143.51;100.00
44309;BME280;30022;55.846;37.340;2023-03-26T00:43:44;79194.19;;;-143.51;100.00
44309;BME280;30022;55.846;37.340;2023-03-26T00:46:11;79194.19;;;-143.51;100.00
44309;BME280;30022;55.846;37.340;2023-03-26T00:48:37;78684.50;;;-143.51;100.00
44309;BME280;30022;55.846;37.340;2023-03-26T00:51:03;78429.69;;;-143.51;100.00
44309;BME280;30022;55.846;37.340;2023-03-26T00:53:30;79194.19;;;-143.51;100.00
44309;BME280;30022;55.846;37.340;2023-03-26T00:55:56;80468.66;;;-143.51;100.00
44309;BME280;30022;55.846;37.340;2023-03-26T00:58:25;80978.56;;;-143.51;100.00
44309;BME280;30022;55.846;37.340;2023-03-26T01:00:52;80723.63;;;-143.51;100.00
44309;BME280;30022;55.846;37.340;2023-03-26T01:03:22;79703.94;;;-143.51;100.00
44309;BME280;30022;55.846;37.340;2023-03-26T01:05:50;78684.50;;;-143.51;100.00
44309;BME280;30022;55.846;37.340;2023-03-26T01:08:38;79194.19;;;-143.51;100.00
44309;BME280;30022;55.846;37.340;2023-03-26T01:11:11;79958.81;;;-143.51;100.00
44309;BME280;30022;55.846;37.340;2023-03-26T01:13:54;79958.81;;;-143.51;100.00
44309;BME280;30022;55.846;37.340;2023-03-26T01:16:24;80213.75;;;-143.51;100.00
44309;BME280;30022;55.846;37.340;2023-03-26T01:18:50;78429.69;;;-143.51;100.00
44309;BME280;30022;55.846;37.340;2023-03-26T01:21:19;78684.50;;;-143.51;100.00
44309;BME280;30022;55.846;37.340;2023-03-26T01:24:03;79194.19;;;-143.51;100.00
44309;BME280;30022;55.846;37.340;2023-03-26T01:29:18;78939.34;;;-143.51;100.00
44309;BME280;30022;55.846;37.340;2023-03-26T01:31:54;77920.09;;;-143.51;100.00
44309;BME280;30022;55.846;37.340;2023-03-26T01:37:02;76137.06;;;-143.51;100.00
44309;BME280;30022;55.846;37.340;2023-03-26T01:39:45;77155.84;;;-143.51;100.00
44309;BME280;30022;55.846;37.340;2023-03-26T01:42:20;77155.84;;;-143.51;100.00
44309;BME280;30022;55.846;37.340;2023-03-26T01:44:51;77155.84;;;-143.51;100.00
44309;BME280;30022;55.846;37.340;2023-03-26T01:47:20;76137.06;;;-143.51;100.00
44309;BME280;30022;55.846;37.340;2023-03-26T01:49:45;73336.75;;;-143.51;100.00
44309;BME280;30022;55.846;37.340;2023-03-26T01:52:19;72318.94;;;-143.51;100.00
44309;BME280;30022;55.846;37.340;2023-03-26T01:54:46;74354.81;;;-143.51;100.00
44309;BME280;30022;55.846;37.340;2023-03-26T02:07:08;75882.41;;;-143.51;100.00
44309;BME280;30022;55.846;37.340;2023-03-26T02:09:39;77155.84;;;-143.51;100.00
44309;BME280;30022;55.846;37.340;2023-03-26T02:12:06;78174.88;;;-143.51;100.00
44309;BME280;30022;55.846;37.340;2023-03-26T02:14:33;77665.31;;;-143.51;100.00
44309;BME280;30022;55.846;37.340;2023-03-26T02:17:18;75627.75;;;-143.51;100.00
44309;BME280;30022;55.846;37.340;2023-03-26T02:19:48;74609.38;;;-143.51;100.00
44309;BME280;30022;55.846;37.340;2023-03-26T02:22:13;75373.16;;;-143.51;100.00
44309;BME280;30022;55.846;37.340;2023-03-26T02:24:42;74609.38;;;-143.51;100.00
44309;BME280;30022;55.846;37.340;2023-03-26T02:27:08;74354.81;;;-143.51;100.00
44309;BME280;30022;55.846;37.340;2023-03-26T02:29:38;75373.16;;;-143.51;100.00
44309;BME280;30022;55.846;37.340;2023-03-26T02:32:06;76137.06;;;-143.51;100.00
44309;BME280;30022;55.846;37.340;2023-03-26T02:34:32;76646.41;;;-143.51;100.00
44309;BME280;30022;55.846;37.340;2023-03-26T02:36:58;75627.75;;;-143.51;100.00
44309;BME280;30022;55.846;37.340;2023-03-26T02:39:25;75627.75;;;-143.51;100.00
44309;BME280;30022;55.846;37.340;2023-03-26T02:41:55;76137.06;;;-143.51;100.00
44309;BME280;30022;55.846;37.340;2023-03-26T02:44:21;77665.31;;;-143.51;100.00
44309;BME280;30022;55.846;37.340;2023-03-26T02:46:56;77665.31;;;-143.51;100.00
44309;BME280;30022;55.846;37.340;2023-03-26T02:49:33;75627.75;;;-143.51;100.00
44309;BME280;30022;55.846;37.340;2023-03-26T02:52:00;75373.16;;;-143.51;100.00
44309;BME280;30022;55.846;37.340;2023-03-26T02:54:26;74609.38;;;-143.51;100.00
44309;BME280;30022;55.846;37.340;2023-03-26T02:57:12;72573.38;;;-143.51;100.00
44309;BME280;30022;55.846;37.340;2023-03-26T02:59:40;72573.38;;;-143.51;100.00
44309;BME280;30022;55.846;37.340;2023-03-26T03:02:29;72573.38;;;-143.51;100.00
44309;BME280;30022;55.846;37.340;2023-03-26T03:04:59;71810.13;;;-143.51;100.00
44309;BME280;30022;55.846;37.340;2023-03-26T03:07:29;72573.38;;;-143.51;100.00
44309;BME280;30022;55.846;37.340;2023-03-26T03:09:58;71810.13;;;-143.51;100.00
44309;BME280;30022;55.846;37.340;2023-03-26T03:12:45;72318.94;;;-143.51;100.00
44309;BME280;30022;55.846;37.340;2023-03-26T03:15:10;73082.28;;;-143.51;100.00
44309;BME280;30022;55.846;37.340;2023-03-26T03:17:36;72827.81;;;-143.51;100.00
44309;BME280;30022;55.846;37.340;2023-03-26T03:20:02;71810.13;;;-143.51;100.00
44309;BME280;30022;55.846;37.340;2023-03-26T03:22:30;71810.13;;;-143.51;100.00
44309;BME280;30022;55.846;37.340;2023-03-26T03:24:55;72827.81;;;-143.51;100.00
44309;BME280;30022;55.846;37.340;2023-03-26T03:27:24;73336.75;;;-143.51;100.00
44309;BME280;30022;55.846;37.340;2023-03-26T03:30:05;72064.53;;;-143.51;100.00
44309;BME280;30022;55.846;37.340;2023-03-26T03:32:43;72318.94;;;-143.51;100.00
44309;BME280;30022;55.846;37.340;2023-03-26T03:35:10;71301.38;;;-143.51;100.00
44309;BME280;30022;55.846;37.340;2023-03-26T03:37:36;71301.38;;;-143.51;100.00
44309;BME280;30022;55.846;37.340;2023-03-26T03:40:04;70284.09;;;-143.51;100.00
44309;BME280;30022;55.846;37.340;2023-03-26T03:42:34;70792.72;;;-143.51;100.00
44309;BME280;30022;55.846;37.340;2023-03-26T03:45:02;72064.53;;;-143.51;100.00
44309;BME280;30022;55.846;37.340;2023-03-26T03:47:46;69521.28;;;-143.51;100.00
44309;BME280;30022;55.846;37.340;2023-03-26T03:50:14;68758.63;;;-143.51;100.00
44309;BME280;30022;55.846;37.340;2023-03-26T03:52:52;67523.63;;;-143.51;100.00
44309;BME280;30022;55.846;37.340;2023-03-26T03:55:18;68250.28;;;-143.51;100.00
44309;BME280;30022;55.846;37.340;2023-03-26T03:57:49;68202.63;;;-143.51;100.00
44309;BME280;30022;55.846;37.340;2023-03-26T04:00:19;67801.56;;;-143.51;100.00
44309;BME280;30022;55.846;37.340;2023-03-26T04:02:57;66161.94;;;-143.51;100.00
44309;BME280;30022;55.846;37.340;2023-03-26T04:05:25;67515.66;;;-143.51;100.00
44309;BME280;30022;55.846;37.340;2023-03-26T04:07:51;68758.63;;;-143.51;100.00
44309;BME280;30022;55.846;37.340;2023-03-26T04:10:16;66818.91;;;-143.51;100.00
44309;BME280;30022;55.846;37.340;2023-03-26T04:13:17;66721.63;;;-143.51;100.00
44309;BME280;30022;55.846;37.340;2023-03-26T04:16:21;66009.13;;;-143.51;100.00
44309;BME280;30022;55.846;37.340;2023-03-26T04:18:47;66165.91;;;-143.51;100.00
44309;BME280;30022;55.846;37.340;2023-03-26T04:21:13;66183.78;;;-143.51;100.00
44309;BME280;30022;55.846;37.340;2023-03-26T04:23:41;69775.53;;;-143.51;100.00
44309;BME280;30022;55.846;37.340;2023-03-26T04:26:22;67513.69;;;-143.51;100.00
44309;BME280;30022;55.846;37.340;2023-03-26T04:29:04;68335.66;;;-143.51;100.00
44309;BME280;30022;55.846;37.340;2023-03-26T04:31:32;69267.06;;;-143.51;100.00
44309;BME280;30022;55.846;37.340;2023-03-26T04:34:03;69267.06;;;-143.51;100.00
44309;BME280;30022;55.846;37.340;2023-03-26T04:36:31;68758.63;;;-143.51;100.00
44309;BME280;30022;55.846;37.340;2023-03-26T04:39:02;68421.06;;;-143.51;100.00
44309;BME280;30022;55.846;37.340;2023-03-26T04:41:52;66032.94;;;-143.51;100.00
44309;BME280;30022;55.846;37.340;2023-03-26T04:44:19;66850.66;;;-143.51;100.00
44309;BME280;30022;55.846;37.340;2023-03-26T04:47:03;65693.63;;;-143.51;100.00
44309;BME280;30022;55.846;37.340;2023-03-26T04:49:35;65681.69;;;-143.51;100.00
44309;BME280;30022;55.846;37.340;2023-03-26T04:52:00;66269.13;;;-143.51;100.00
44309;BME280;30022;55.846;37.340;2023-03-26T04:54:58;67205.97;;;-143.51;100.00
44309;BME280;30022;55.846;37.340;2023-03-26T04:57:32;67150.41;;;-143.51;100.00
44309;BME280;30022;55.846;37.340;2023-03-26T05:00:04;68758.63;;;-143.51;100.00
44309;BME280;30022;55.846;37.340;2023-03-26T05:02:39;68758.63;;;-143.51;100.00
44309;BME280;30022;55.846;37.340;2023-03-26T05:05:06;68911.56;;;-143.51;100.00
44309;BME280;30022;55.846;37.340;2023-03-26T05:07:33;67118.63;;;-143.51;100.00
44309;BME280;30022;55.846;37.340;2023-03-26T05:09:59;63743.47;;;-143.51;100.00
44309;BME280;30022;55.846;37.340;2023-03-26T05:12:37;65255.09;;;-143.51;100.00
44309;BME280;30022;55.846;37.340;2023-03-26T05:15:07;67882.97;;;-143.51;100.00
44309;BME280;30022;55.846;37.340;2023-03-26T05:17:48;68232.41;;;-143.51;100.00
44309;BME280;30022;55.846;37.340;2023-03-26T05:20:40;70284.09;;;-143.51;100.00
44309;BME280;30022;55.846;37.340;2023-03-26T05:23:08;68186.75;;;-143.51;100.00
44309;BME280;30022;55.846;37.340;2023-03-26T05:25:42;64840.44;;;-143.51;100.00
44309;BME280;30022;55.846;37.340;2023-03-26T05:28:14;65814.66;;;-143.51;100.00
44309;BME280;30022;55.846;37.340;2023-03-26T05:30:50;66634.31;;;-143.51;100.00
44309;BME280;30022;55.846;37.340;2023-03-26T05:33:18;66789.13;;;-143.51;100.00
44309;BME280;30022;55.846;37.340;2023-03-26T05:35:59;67442.22;;;-143.51;100.00
44309;BME280;30022;55.846;37.340;2023-03-26T05:38:27;69221.38;;;-143.51;100.00
44309;BME280;30022;55.846;37.340;2023-03-26T05:41:04;66521.19;;;-143.51;100.00
44309;BME280;30022;55.846;37.340;2023-03-26T05:43:32;66104.41;;;-143.51;100.00
44309;BME280;30022;55.846;37.340;2023-03-26T05:46:14;68989.00;;;-143.51;100.00
44309;BME280;30022;55.846;37.340;2023-03-26T05:48:41;70284.09;;;-143.51;100.00
44309;BME280;30022;55.846;37.340;2023-03-26T05:51:07;69775.53;;;-143.51;100.00
44309;BME280;30022;55.846;37.340;2023-03-26T05:53:33;70284.09;;;-143.51;100.00
44309;BME280;30022;55.846;37.340;2023-03-26T05:56:18;69521.28;;;-143.51;100.00
44309;BME280;30022;55.846;37.340;2023-03-26T05:59:14;69755.69;;;-143.51;100.00
44309;BME280;30022;55.846;37.340;2023-03-26T06:01:59;71047.03;;;-143.51;100.00
44309;BME280;30022;55.846;37.340;2023-03-26T06:04:45;71047.03;;;-143.51;100.00
44309;BME280;30022;55.846;37.340;2023-03-26T06:07:28;72318.94;;;-143.51;100.00
44309;BME280;30022;55.846;37.340;2023-03-26T06:10:15;72827.81;;;-143.51;100.00
44309;BME280;30022;55.846;37.340;2023-03-26T06:12:43;72318.94;;;-143.51;100.00
44309;BME280;30022;55.846;37.340;2023-03-26T06:15:10;70029.81;;;-143.51;100.00
44309;BME280;30022;55.846;37.340;2023-03-26T06:17:46;70792.72;;;-143.51;100.00
44309;BME280;30022;55.846;37.340;2023-03-26T06:20:35;72064.53;;;-143.51;100.00
44309;BME280;30022;55.846;37.340;2023-03-26T06:23:21;73336.75;;;-143.51;100.00
44309;BME280;30022;55.846;37.340;2023-03-26T06:25:59;73082.28;;;-143.51;100.00
44309;BME280;30022;55.846;37.340;2023-03-26T06:28:40;70792.72;;;-143.51;100.00
44309;BME280;30022;55.846;37.340;2023-03-26T06:31:44;70284.09;;;-143.51;100.00
44309;BME280;30022;55.846;37.340;2023-03-26T06:34:15;70538.41;;;-143.51;100.00
44309;BME280;30022;55.846;37.340;2023-03-26T06:36:41;72318.94;;;-143.51;100.00
44309;BME280;30022;55.846;37.340;2023-03-26T06:39:06;72318.94;;;-143.51;100.00
44309;BME280;30022;55.846;37.340;2023-03-26T06:41:33;71047.03;;;-143.51;100.00
44309;BME280;30022;55.846;37.340;2023-03-26T06:44:22;73336.75;;;-143.51;100.00
44309;BME280;30022;55.846;37.340;2023-03-26T06:47:06;74100.28;;;-143.51;100.00
44309;BME280;30022;55.846;37.340;2023-03-26T06:49:54;75373.16;;;-143.51;100.00
44309;BME280;30022;55.846;37.340;2023-03-26T06:52:26;75118.53;;;-143.51;100.00
44309;BME280;30022;55.846;37.340;2023-03-26T06:55:18;74354.81;;;-143.51;100.00
44309;BME280;30022;55.846;37.340;2023-03-26T06:58:00;72827.81;;;-143.51;100.00
44309;BME280;30022;55.846;37.340;2023-03-26T07:00:40;73591.25;;;-143.51;100.00
44309;BME280;30022;55.846;37.340;2023-03-26T07:03:25;71301.38;;;-143.51;100.00
44309;BME280;30022;55.846;37.340;2023-03-26T07:06:09;72318.94;;;-143.51;100.00
44309;BME280;30022;55.846;37.340;2023-03-26T07:08:53;73845.75;;;-143.51;100.00
44309;BME280;30022;55.846;37.340;2023-03-26T07:11:38;77155.84;;;-143.51;100.00
44309;BME280;30022;55.846;37.340;2023-03-26T07:14:13;76391.72;;;-143.51;100.00
44309;BME280;30022;55.846;37.340;2023-03-26T07:16:58;76391.72;;;-143.51;100.00
44309;BME280;30022;55.846;37.340;2023-03-26T07:19:59;78684.50;;;-143.51;100.00
44309;BME280;30022;55.846;37.340;2023-03-26T07:22:26;81488.56;;;-143.51;100.00
44309;BME280;30022;55.846;37.340;2023-03-26T07:25:13;80213.75;;;-143.51;100.00
44309;BME280;30022;55.846;37.340;2023-03-26T07:28:27;80978.56;;;-143.51;100.00
44309;BME280;30022;55.846;37.340;2023-03-26T07:36:25;83529.09;;;-143.51;100.00
44309;BME280;30022;55.846;37.340;2023-03-26T07:39:34;83529.09;;;-143.51;100.00
44309;BME280;30022;55.846;37.340;2023-03-26T07:42:28;83784.22;;;-143.51;100.00
44309;BME280;30022;55.846;37.340;2023-03-26T07:45:36;85060.19;;;-143.51;100.00
44309;BME280;30022;55.846;37.340;2023-03-26T07:48:25;84549.75;;;-143.51;100.00
44309;BME280;30022;55.846;37.340;2023-03-26T07:51:09;84549.75;;;-143.51;100.00
44309;BME280;30022;55.846;37.340;2023-03-26T07:54:08;85315.41;;;-143.51;100.00
44309;BME280;30022;55.846;37.340;2023-03-26T07:56:51;85825.94;;;-143.51;100.00
44309;BME280;30022;55.846;37.340;2023-03-26T07:59:49;86847.19;;;-143.51;100.00
44309;BME280;30022;55.846;37.340;2023-03-26T08:05:26;86336.53;;;-143.51;100.00
44309;BME280;30022;55.846;37.340;2023-03-26T08:15:57;86847.19;;;-143.51;100.00
44309;BME280;30022;55.846;37.340;2023-03-26T08:18:27;86847.19;;;-143.51;100.00
44309;BME280;30022;55.846;37.340;2023-03-26T08:21:03;86591.84;;;-143.51;100.00
44309;BME280;30022;55.846;37.340;2023-03-26T08:31:32;86336.53;;;-143.51;100.00
44309;BME280;30022;55.846;37.340;2023-03-26T08:33:59;87357.91;;;-143.51;100.00
44309;BME280;30022;55.846;37.340;2023-03-26T08:36:25;87613.28;;;-143.51;100.00
44309;BME280;30022;55.846;37.340;2023-03-26T08:38:51;87868.69;;;-143.51;100.00
44309;BME280;30022;55.846;37.340;2023-03-26T08:41:21;88124.09;;;-143.51;100.00
44309;BME280;30022;55.846;37.340;2023-03-26T09:12:26;90423.56;;;-143.51;100.00
44309;BME280;30022;55.846;37.340;2023-03-26T09:22:26;90934.75;;;-143.51;100.00
44309;BME280;30022;55.846;37.340;2023-03-26T09:30:16;90934.75;;;-143.51;100.00
44309;BME280;30022;55.846;37.340;2023-03-26T09:54:00;91190.34;;;-143.51;100.00
44309;BME280;30022;55.846;37.340;2023-03-26T10:04:23;91190.34;;;-143.51;100.00
44309;BME280;30022;55.846;37.340;2023-03-26T10:07:07;91701.63;;;-143.51;100.00
44309;BME280;30022;55.846;37.340;2023-03-26T10:12:38;91701.63;;;-143.51;100.00
44309;BME280;30022;55.846;37.340;2023-03-26T10:15:16;90679.16;;;-143.51;100.00
44309;BME280;30022;55.846;37.340;2023-03-26T10:17:59;91190.34;;;-143.51;100.00
44309;BME280;30022;55.846;37.340;2023-03-26T10:26:02;92212.97;;;-143.51;100.00
44309;BME280;30022;55.846;37.340;2023-03-26T10:52:20;95538.22;;;-143.51;100.00
44309;BME280;30022;55.846;37.340;2023-03-26T11:00:13;97585.88;;;-143.51;100.00
44309;BME280;30022;55.846;37.340;2023-03-26T11:11:29;98097.94;;;-143.51;100.00
44309;BME280;30022;55.846;37.340;2023-03-26T11:19:10;97329.84;;;-143.51;100.00
44309;BME280;30022;55.846;37.340;2023-03-26T11:21:59;97585.88;;;-143.51;100.00
44309;BME280;30022;55.846;37.340;2023-03-26T11:26:55;97841.91;;;-143.51;100.00
44309;BME280;30022;55.846;37.340;2023-03-26T11:29:29;96817.88;;;-143.51;100.00
44309;BME280;30022;55.846;37.340;2023-03-26T11:32:02;96817.88;;;-143.51;100.00
44309;BME280;30022;55.846;37.340;2023-03-26T11:35:13;97329.84;;;-143.51;100.00
44309;BME280;30022;55.846;37.340;2023-03-26T11:37:22;97073.84;;;-143.51;100.00
44309;BME280;30022;55.846;37.340;2023-03-26T11:39:52;96817.88;;;-143.51;100.00
44309;BME280;30022;55.846;37.340;2023-03-26T11:42:21;96561.91;;;-143.51;100.00
44309;BME280;30022;55.846;37.340;2023-03-26T11:44:54;97329.84;;;-143.51;100.00
44309;BME280;30022;55.846;37.340;2023-03-26T11:47:32;97585.88;;;-143.51;100.00
44309;BME280;30022;55.846;37.340;2023-03-26T11:50:00;97585.88;;;-143.51;100.00
44309;BME280;30022;55.846;37.340;2023-03-26T11:52:26;97585.88;;;-143.51;100.00
44309;BME280;30022;55.846;37.340;2023-03-26T11:54:52;97841.91;;;-143.51;100.00
44309;BME280;30022;55.846;37.340;2023-03-26T11:57:19;97841.91;;;-143.51;100.00
44309;BME280;30022;55.846;37.340;2023-03-26T11:59:49;97841.91;;;-143.51;100.00
44309;BME280;30022;55.846;37.340;2023-03-26T12:02:23;97073.84;;;-143.51;100.00
44309;BME280;30022;55.846;37.340;2023-03-26T12:04:49;96817.88;;;-143.51;100.00
44309;BME280;30022;55.846;37.340;2023-03-26T12:07:20;97073.84;;;-143.51;100.00
44309;BME280;30022;55.846;37.340;2023-03-26T12:09:54;97073.84;;;-143.51;100.00
44309;BME280;30022;55.846;37.340;2023-03-26T12:12:23;97073.84;;;-143.51;100.00
44309;BME280;30022;55.846;37.340;2023-03-26T12:14:49;97073.84;;;-143.51;100.00
44309;BME280;30022;55.846;37.340;2023-03-26T12:17:26;97585.88;;;-143.51;100.00
44309;BME280;30022;55.846;37.340;2023-03-26T12:19:54;97841.91;;;-143.51;100.00
44309;BME280;30022;55.846;37.340;2023-03-26T12:22:37;98097.94;;;-143.51;100.00
44309;BME280;30022;55.846;37.340;2023-03-26T12:25:21;97841.91;;;-143.51;100.00
44309;BME280;30022;55.846;37.340;2023-03-26T12:27:59;97841.91;;;-143.51;100.00
44309;BME280;30022;55.846;37.340;2023-03-26T12:30:29;97841.91;;;-143.51;100.00
44309;BME280;30022;55.846;37.340;2023-03-26T12:32:56;98354.00;;;-143.51;100.00
44309;BME280;30022;55.846;37.340;2023-03-26T12:35:26;98097.94;;;-143.51;100.00
44309;BME280;30022;55.846;37.340;2023-03-26T12:38:31;97585.88;;;-143.51;100.00
44309;BME280;30022;55.846;37.340;2023-03-26T12:41:10;97585.88;;;-143.51;100.00
44309;BME280;30022;55.846;37.340;2023-03-26T12:43:41;98097.94;;;-143.51;100.00
44309;BME280;30022;55.846;37.340;2023-03-26T12:46:27;98610.09;;;-143.51;100.00
44309;BME280;30022;55.846;37.340;2023-03-26T12:48:57;98097.94;;;-143.51;100.00
44309;BME280;30022;55.846;37.340;2023-03-26T13:04:42;99122.31;;;-143.51;100.00
44309;BME280;30022;55.846;37.340;2023-03-26T13:07:14;98610.09;;;-143.51;100.00
44309;BME280;30022;55.846;37.340;2023-03-26T13:09:52;98354.00;;;-143.51;100.00
44309;BME280;30022;55.846;37.340;2023-03-26T13:20:27;99122.31;;;-143.51;100.00
44309;BME280;30022;55.846;37.340;2023-03-26T13:25:43;98354.00;;;-143.51;100.00
44309;BME280;30022;55.846;37.340;2023-03-26T13:39:02;99122.31;;;-143.51;100.00
44309;BME280;30022;55.846;37.340;2023-03-26T13:46:30;98354.00;;;-143.51;100.00
44309;BME280;30022;55.846;37.340;2023-03-26T13:49:02;98610.09;;;-143.51;100.00
44309;BME280;30022;55.846;37.340;2023-03-26T13:54:00;99122.31;;;-143.51;100.00
44309;BME280;30022;55.846;37.340;2023-03-26T13:56:30;98866.19;;;-143.51;100.00
44309;BME280;30022;55.846;37.340;2023-03-26T13:59:00;99122.31;;;-143.51;100.00
44309;BME280;30022;55.846;37.340;2023-03-26T14:01:27;99378.44;;;-143.51;100.00
44309;BME280;30022;55.846;37.340;2023-03-26T14:04:17;98610.09;;;-143.51;100.00
44309;BME280;30022;55.846;37.340;2023-03-26T14:09:13;98866.19;;;-143.51;100.00
44309;BME280;30022;55.846;37.340;2023-03-26T14:14:15;99122.31;;;-143.51;100.00
44309;BME280;30022;55.846;37.340;2023-03-26T14:16:46;98610.09;;;-143.51;100.00
44309;BME280;30022;55.846;37.340;2023-03-26T14:25:36;98866.19;;;-143.51;100.00
44309;BME280;30022;55.846;37.340;2023-03-26T14:45:57;99122.31;;;-143.51;100.00
44309;BME280;30022;55.846;37.340;2023-03-26T14:53:35;99122.31;;;-143.51;100.00
44309;BME280;30022;55.846;37.340;2023-03-26T15:03:53;99378.44;;;-143.51;100.00
44309;BME280;30022;55.846;37.340;2023-03-26T15:30:13;98354.00;;;-143.51;100.00
44309;BME280;30022;55.846;37.340;2023-03-26T15:40:59;98866.19;;;-143.51;100.00
44309;BME280;30022;55.846;37.340;2023-03-26T15:44:00;98610.09;;;-143.51;100.00
44309;BME280;30022;55.846;37.340;2023-03-26T15:46:31;98354.00;;;-143.51;100.00
44309;BME280;30022;55.846;37.340;2023-03-26T15:49:18;98610.09;;;-143.51;100.00
44309;BME280;30022;55.846;37.340;2023-03-26T15:54:28;98866.19;;;-143.51;100.00
44309;BME280;30022;55.846;37.340;2023-03-26T15:59:41;98866.19;;;-143.51;100.00
44309;BME280;30022;55.846;37.340;2023-03-26T16:04:42;98866.19;;;-143.51;100.00
44309;BME280;30022;55.846;37.340;2023-03-26T16:10:19;99122.31;;;-143.51;100.00
44309;BME280;30022;55.846;37.340;2023-03-26T16:12:52;99122.31;;;-143.51;100.00
44309;BME280;30022;55.846;37.340;2023-03-26T16:18:31;99122.31;;;-143.51;100.00
44309;BME280;30022;55.846;37.340;2023-03-26T16:20:44;99122.31;;;-143.51;100.00
44309;BME280;30022;55.846;37.340;2023-03-26T16:23:32;98866.19;;;-143.51;100.00
44309;BME280;30022;55.846;37.340;2023-03-26T16:36:05;98354.00;;;-143.51;100.00
44309;BME280;30022;55.846;37.340;2023-03-26T16:41:25;98610.09;;;-143.51;100.00
44309;BME280;30022;55.846;37.340;2023-03-26T16:43:57;98354.00;;;-143.51;100.00
44309;BME280;30022;55.846;37.340;2023-03-26T16:49:28;98610.09;;;-143.51;100.00
44309;BME280;30022;55.846;37.340;2023-03-26T16:52:06;98866.19;;;-143.51;100.00
44309;BME280;30022;55.846;37.340;2023-03-26T16:54:39;98354.00;;;-143.51;100.00
44309;BME280;30022;55.846;37.340;2023-03-26T17:02:22;99122.31;;;-143.51;100.00
44309;BME280;30022;55.846;37.340;2023-03-26T17:04:52;98866.19;;;-143.51;100.00
44309;BME280;30022;55.846;37.340;2023-03-26T17:08:06;98610.09;;;-143.51;100.00
44309;BME280;30022;55.846;37.340;2023-03-26T17:15:23;98866.19;;;-143.51;100.00
44309;BME280;30022;55.846;37.340;2023-03-26T17:22:58;98610.09;;;-143.51;100.00
44309;BME280;30022;55.846;37.340;2023-03-26T17:28:21;98610.09;;;-143.51;100.00
44309;BME280;30022;55.846;37.340;2023-03-26T17:33:34;98610.09;;;-143.51;100.00
44309;BME280;30022;55.846;37.340;2023-03-26T17:41:03;99122.31;;;-143.51;100.00
44309;BME280;30022;55.846;37.340;2023-03-26T17:43:34;99378.44;;;-143.51;100.00
44309;BME280;30022;55.846;37.340;2023-03-26T17:46:01;99122.31;;;-143.51;100.00
44309;BME280;30022;55.846;37.340;2023-03-26T17:48:29;99378.44;;;-143.51;100.00
44309;BME280;30022;55.846;37.340;2023-03-26T17:51:16;99122.31;;;-143.51;100.00
44309;BME280;30022;55.846;37.340;2023-03-26T17:53:45;98866.19;;;-143.51;100.00
44309;BME280;30022;55.846;37.340;2023-03-26T17:56:12;99122.31;;;-143.51;100.00
44309;BME280;30022;55.846;37.340;2023-03-26T17:58:40;98866.19;;;-143.51;100.00
44309;BME280;30022;55.846;37.340;2023-03-26T18:03:51;98610.09;;;-143.51;100.00
44309;BME280;30022;55.846;37.340;2023-03-26T18:09:06;98866.19;;;-143.51;100.00
44309;BME280;30022;55.846;37.340;2023-03-26T18:14:38;98866.19;;;-143.51;100.00
44309;BME280;30022;55.846;37.340;2023-03-26T18:17:08;98610.09;;;-143.51;100.00
44309;BME280;30022;55.846;37.340;2023-03-26T18:19:47;98610.09;;;-143.51;100.00
44309;BME280;30022;55.846;37.340;2023-03-26T18:22:16;98610.09;;;-143.51;100.00
44309;BME280;30022;55.846;37.340;2023-03-26T18:24:43;98354.00;;;-143.51;100.00
44309;BME280;30022;55.846;37.340;2023-03-26T18:27:10;98354.00;;;-143.51;100.00
44309;BME280;30022;55.846;37.340;2023-03-26T18:29:43;97329.84;;;-143.51;100.00
44309;BME280;30022;55.846;37.340;2023-03-26T18:34:39;97585.88;;;-143.51;100.00
44309;BME280;30022;55.846;37.340;2023-03-26T18:37:53;97841.91;;;-143.51;100.00
44309;BME280;30022;55.846;37.340;2023-03-26T18:42:27;97585.88;;;-143.51;100.00
44309;BME280;30022;55.846;37.340;2023-03-26T18:44:54;97073.84;;;-143.51;100.00